Time;durP1;ratioP1;P1;durP2;ratioP2;P2;SDS_P1;SDS_P2;PMS_P1;PMS_P2;Temp;Humidity;BMP_temperature;BMP_pressure;BME280_temperature;BME280_humidity;BME280_pressure;Samples;Min_cycle;Max_cycle;Signal;HPM_P1;HPM_P2
2022/07/08 00:03:12;;;;;;;5.63;3.67;;;16.30;99.90;;;;;;10087252;29;20414;-84
2022/07/08 00:08:13;;;;;;;5.32;3.80;;;16.30;99.90;;;;;;10087141;29;20123;-84
2022/07/08 00:13:14;;;;;;;4.00;3.35;;;16.30;99.90;;;;;;10085642;29;20108;-85
2022/07/08 00:18:14;;;;;;;5.32;3.47;;;16.30;99.90;;;;;;10085911;29;20101;-84
2022/07/08 00:23:15;;;;;;;4.38;3.80;;;16.20;99.90;;;;;;10087386;29;20379;-83
2022/07/08 00:28:16;;;;;;;7.13;4.30;;;16.20;99.90;;;;;;10092082;29;20056;-83
2022/07/08 00:33:16;;;;;;;6.10;3.80;;;16.20;99.90;;;;;;10090407;29;20170;-84
2022/07/08 00:38:17;;;;;;;7.32;4.00;;;16.20;99.90;;;;;;10094102;29;20097;-84
2022/07/08 00:43:35;;;;;;;5.65;4.47;;;16.20;99.90;;;;;;10154460;23;20057;-85
2022/07/08 00:48:36;;;;;;;7.00;3.85;;;16.10;99.90;;;;;;10131732;29;20029;-84
2022/07/08 00:53:39;;;;;;;6.13;4.00;;;16.20;99.90;;;;;;10159476;29;20032;-84
2022/07/08 00:58:40;;;;;;;4.03;3.60;;;16.20;99.90;;;;;;10146752;29;20123;-83
2022/07/08 01:03:43;;;;;;;6.55;3.42;;;16.30;99.90;;;;;;10144175;29;20100;-85
2022/07/08 01:08:44;;;;;;;6.53;3.85;;;16.30;99.90;;;;;;10148776;29;20032;-84
2022/07/08 01:13:47;;;;;;;5.13;3.72;;;16.30;99.90;;;;;;10152480;29;20063;-86
2022/07/08 01:18:47;;;;;;;4.05;3.53;;;16.30;99.90;;;;;;10137838;29;20027;-84
2022/07/08 01:23:48;;;;;;;5.55;3.58;;;16.30;99.90;;;;;;10154470;29;20065;-85
2022/07/08 01:28:49;;;;;;;3.80;3.35;;;16.30;99.90;;;;;;10149166;29;20407;-86
2022/07/08 01:33:49;;;;;;;4.18;3.58;;;16.30;99.90;;;;;;10135739;29;20032;-85
2022/07/08 01:38:50;;;;;;;4.57;3.75;;;16.30;99.90;;;;;;10158386;29;20035;-85
2022/07/08 01:43:50;;;;;;;4.75;3.90;;;16.20;99.90;;;;;;10147313;29;20389;-84
2022/07/08 01:48:51;;;;;;;5.22;3.85;;;16.20;99.90;;;;;;10150845;29;20107;-84
2022/07/08 01:53:51;;;;;;;4.72;4.00;;;16.20;99.90;;;;;;10159255;29;20039;-85
2022/07/08 01:58:52;;;;;;;4.63;3.45;;;16.20;99.90;;;;;;10150260;29;20457;-84
2022/07/08 02:03:53;;;;;;;7.15;4.05;;;16.20;99.90;;;;;;10159235;29;20047;-84
2022/07/08 02:08:54;;;;;;;4.80;3.97;;;16.20;99.90;;;;;;10163798;29;20088;-84
2022/07/08 02:13:54;;;;;;;4.78;4.05;;;16.10;99.90;;;;;;10146377;29;20925;-84
2022/07/08 02:18:55;;;;;;;3.88;3.47;;;16.10;99.90;;;;;;10146219;29;20096;-85
2022/07/08 02:23:55;;;;;;;4.57;3.88;;;16.10;99.90;;;;;;10145119;29;20032;-86
2022/07/08 02:28:56;;;;;;;5.75;4.60;;;16.10;99.90;;;;;;10134190;29;20044;-85
2022/07/08 02:33:57;;;;;;;4.57;4.05;;;16.10;99.90;;;;;;10146325;29;20033;-85
2022/07/08 02:38:57;;;;;;;5.75;4.28;;;16.10;99.90;;;;;;10133041;29;20068;-85
2022/07/08 02:43:58;;;;;;;6.00;4.70;;;16.10;99.90;;;;;;10146014;29;20045;-85
2022/07/08 02:48:59;;;;;;;4.25;3.85;;;16.10;99.90;;;;;;10141554;29;20032;-85
2022/07/08 02:53:59;;;;;;;5.78;4.40;;;16.20;99.90;;;;;;10157323;29;20107;-85
2022/07/08 02:59:01;;;;;;;4.60;4.20;;;16.20;99.90;;;;;;10150835;29;20032;-83
2022/07/08 03:04:01;;;;;;;5.38;4.50;;;16.10;99.90;;;;;;10145418;29;20047;-86
2022/07/08 03:09:02;;;;;;;5.38;4.22;;;16.20;99.90;;;;;;10145377;29;20567;-84
2022/07/08 03:14:02;;;;;;;4.72;4.25;;;16.20;99.90;;;;;;10146091;29;20024;-84
2022/07/08 03:19:03;;;;;;;5.78;4.32;;;16.30;99.90;;;;;;10151691;29;20037;-84
2022/07/08 03:24:04;;;;;;;5.82;4.30;;;16.30;99.90;;;;;;10157505;29;20044;-85
2022/07/08 03:29:04;;;;;;;5.22;4.65;;;16.30;99.90;;;;;;10134415;29;20028;-84
2022/07/08 03:34:06;;;;;;;5.82;4.85;;;16.40;99.90;;;;;;10156336;23;20056;-86
2022/07/08 03:39:07;;;;;;;6.30;4.80;;;16.40;99.90;;;;;;10127437;29;20091;-86
2022/07/08 03:44:07;;;;;;;5.88;4.82;;;16.50;99.90;;;;;;10113691;29;20044;-88
2022/07/08 03:49:08;;;;;;;5.88;4.60;;;16.60;99.90;;;;;;10106422;29;20024;-83
2022/07/08 03:54:09;;;;;;;5.78;4.20;;;16.60;99.90;;;;;;10111730;29;20031;-84
2022/07/08 03:59:12;;;;;;;5.03;4.32;;;16.60;99.90;;;;;;10124522;29;20043;-85
2022/07/08 04:04:13;;;;;;;5.25;4.60;;;16.60;99.90;;;;;;10126162;29;20040;-84
2022/07/08 04:09:14;;;;;;;6.70;4.53;;;16.60;99.90;;;;;;10123908;29;20033;-86
2022/07/08 04:14:14;;;;;;;5.75;4.38;;;16.70;99.90;;;;;;10107221;29;20039;-84
2022/07/08 04:19:15;;;;;;;6.55;4.68;;;16.80;99.90;;;;;;10135205;29;20040;-83
2022/07/08 04:24:16;;;;;;;5.35;4.85;;;16.90;99.90;;;;;;10108789;29;20069;-83
2022/07/08 04:29:16;;;;;;;7.70;5.20;;;16.90;99.90;;;;;;10131737;29;20033;-84
2022/07/08 04:34:17;;;;;;;5.22;4.70;;;17.00;99.90;;;;;;10128827;29;20049;-86
2022/07/08 04:39:17;;;;;;;5.80;4.65;;;17.00;99.90;;;;;;10113015;29;20036;-87
2022/07/08 04:44:18;;;;;;;5.55;5.05;;;17.00;99.90;;;;;;10121942;29;20040;-89
2022/07/08 04:49:19;;;;;;;5.07;4.45;;;17.00;99.90;;;;;;10128616;29;20545;-84
2022/07/08 04:54:19;;;;;;;5.47;4.97;;;17.10;99.90;;;;;;10134225;29;20092;-84
2022/07/08 04:59:21;;;;;;;5.50;4.88;;;17.00;99.90;;;;;;10136680;29;20040;-88
2022/07/08 05:04:22;;;;;;;8.02;5.60;;;17.10;99.90;;;;;;10112740;29;20042;-84
2022/07/08 05:09:22;;;;;;;6.60;5.30;;;17.20;99.90;;;;;;10127207;29;20450;-84
2022/07/08 05:14:23;;;;;;;5.82;4.63;;;17.20;99.90;;;;;;10134010;29;20562;-84
2022/07/08 05:19:23;;;;;;;7.18;5.72;;;17.20;99.90;;;;;;10132475;29;20044;-84
2022/07/08 05:24:24;;;;;;;6.70;5.95;;;17.40;99.90;;;;;;10126984;29;20042;-84
2022/07/08 05:29:25;;;;;;;6.40;5.00;;;17.60;99.90;;;;;;10117020;29;20040;-84
2022/07/08 05:34:25;;;;;;;7.57;5.03;;;17.60;99.90;;;;;;10142860;29;20135;-84
2022/07/08 05:39:26;;;;;;;6.07;5.47;;;17.80;99.90;;;;;;10128982;29;20140;-84
2022/07/08 05:44:27;;;;;;;9.25;6.30;;;17.90;99.90;;;;;;10133019;29;20040;-84
2022/07/08 05:49:27;;;;;;;6.38;5.43;;;18.10;99.90;;;;;;10139665;29;20036;-84
2022/07/08 05:54:28;;;;;;;7.43;5.63;;;18.20;99.90;;;;;;10131308;29;20048;-84
2022/07/08 05:59:29;;;;;;;7.97;5.47;;;18.30;99.90;;;;;;10130296;29;20028;-87
2022/07/08 06:04:29;;;;;;;6.55;5.00;;;18.50;99.90;;;;;;10136486;29;20155;-84
2022/07/08 06:09:30;;;;;;;4.82;4.32;;;18.50;99.90;;;;;;10124581;29;20031;-84
2022/07/08 06:14:31;;;;;;;5.50;4.93;;;18.50;99.90;;;;;;10130459;29;20024;-89
2022/07/08 06:19:31;;;;;;;5.70;5.10;;;18.40;99.90;;;;;;10132461;29;20544;-86
2022/07/08 06:24:32;;;;;;;6.20;5.57;;;18.20;99.90;;;;;;10151871;29;20037;-89
2022/07/08 06:29:33;;;;;;;6.60;5.07;;;18.10;99.90;;;;;;10140852;29;20028;-88
2022/07/08 06:34:34;;;;;;;4.97;4.47;;;18.20;99.90;;;;;;10112515;29;20041;-84
2022/07/08 06:39:34;;;;;;;4.90;3.97;;;18.50;99.90;;;;;;10119926;29;20037;-84
2022/07/08 06:44:35;;;;;;;4.03;3.70;;;19.00;99.90;;;;;;10100609;29;20045;-88
2022/07/08 06:49:35;;;;;;;5.28;3.90;;;19.50;99.90;;;;;;10100309;29;20043;-86
2022/07/08 06:54:36;;;;;;;4.10;3.70;;;19.80;99.90;;;;;;10120092;29;20024;-90
2022/07/08 06:59:38;;;;;;;4.93;3.53;;;20.00;99.90;;;;;;10122064;29;20473;-84
2022/07/08 07:04:50;;;;;;;4.28;3.40;;;20.00;99.90;;;;;;10122726;29;20127;-84
2022/07/08 07:10:03;;;;;;;3.83;3.42;;;20.00;99.90;;;;;;10125810;29;20076;-86
2022/07/08 07:15:16;;;;;;;4.20;3.80;;;20.00;99.90;;;;;;10134679;29;20036;-84
2022/07/08 07:20:28;;;;;;;4.15;3.75;;;20.00;99.90;;;;;;10110149;29;20020;-88
2022/07/08 07:25:29;;;;;;;5.75;4.45;;;19.80;99.90;;;;;;10112306;29;20041;-85
2022/07/08 07:36:08;;;;;;;4.47;3.28;;;20.00;99.90;;;;;;10117988;29;20056;-86
2022/07/08 07:41:09;;;;;;;3.53;3.00;;;20.20;99.90;;;;;;10104027;29;20036;-84
2022/07/08 07:46:09;;;;;;;3.20;2.90;;;21.00;99.40;;;;;;10125553;29;20056;-84
2022/07/08 07:51:23;;;;;;;2.65;2.45;;;21.30;99.10;;;;;;10126927;29;20033;-88
2022/07/08 07:56:23;;;;;;;1.90;1.80;;;22.60;97.80;;;;;;10111483;29;20095;-85
2022/07/08 08:01:24;;;;;;;4.95;2.13;;;22.90;91.00;;;;;;10102436;29;20016;-89
2022/07/08 08:06:25;;;;;;;2.25;2.03;;;22.70;92.00;;;;;;10116621;29;20424;-85
2022/07/08 08:11:25;;;;;;;4.25;2.30;;;22.10;91.50;;;;;;10102073;29;20033;-84
2022/07/08 08:16:32;;;;;;;2.50;2.30;;;21.90;92.50;;;;;;10124982;29;20062;-84
2022/07/08 08:21:53;;;;;;;2.55;2.20;;;22.30;89.90;;;;;;10109142;29;20127;-87
2022/07/08 08:27:37;;;;;;;2.42;2.22;;;22.90;91.70;;;;;;10102671;29;20037;-85
2022/07/08 08:38:28;;;;;;;2.70;2.42;;;23.20;87.80;;;;;;10112264;29;20056;-86
2022/07/08 08:43:29;;;;;;;3.35;2.88;;;22.40;90.00;;;;;;10111198;29;20478;-87
2022/07/08 08:48:36;;;;;;;3.20;2.90;;;23.00;89.10;;;;;;10132499;29;20036;-90
2022/07/08 08:53:45;;;;;;;4.25;3.85;;;23.00;88.20;;;;;;10126483;29;20535;-85
2022/07/08 08:58:47;;;;;;;2.60;2.40;;;23.20;90.30;;;;;;10112870;29;20128;-86
2022/07/08 09:03:48;;;;;;;2.92;2.70;;;22.80;87.70;;;;;;10116381;29;20473;-85
2022/07/08 09:08:48;;;;;;;3.92;3.30;;;22.60;89.40;;;;;;10115211;29;20043;-90
2022/07/08 09:14:15;;;;;;;3.33;2.90;;;23.30;90.40;;;;;;10124767;29;20044;-85
2022/07/08 09:19:16;;;;;;;3.75;3.45;;;23.20;88.40;;;;;;10115061;29;20032;-84
2022/07/08 09:24:18;;;;;;;4.07;3.67;;;23.00;88.90;;;;;;10126561;29;20032;-84
2022/07/08 09:29:18;;;;;;;3.60;3.30;;;22.90;88.30;;;;;;10122858;29;20041;-85
2022/07/08 09:34:22;;;;;;;4.40;3.95;;;23.20;89.20;;;;;;10132982;29;20032;-88
2022/07/08 09:39:26;;;;;;;17.83;4.07;;;23.10;88.50;;;;;;10137967;29;20028;-86
2022/07/08 09:44:27;;;;;;;9.88;5.53;;;22.50;92.00;;;;;;10121413;29;20059;-85
2022/07/08 09:49:28;;;;;;;9.98;7.20;;;21.30;96.30;;;;;;10117880;29;20102;-86
2022/07/08 09:54:29;;;;;;;10.13;8.68;;;19.80;99.90;;;;;;10140302;29;20607;-86
2022/07/08 09:59:31;;;;;;;10.23;8.88;;;19.10;99.90;;;;;;10111307;29;20040;-85
2022/07/08 10:04:31;;;;;;;9.50;8.23;;;18.90;99.90;;;;;;10131430;29;20517;-85
2022/07/08 10:09:32;;;;;;;6.43;5.78;;;19.40;99.90;;;;;;10136238;29;20039;-86
2022/07/08 10:14:35;;;;;;;10.35;8.38;;;20.00;99.90;;;;;;10128894;29;20024;-86
2022/07/08 10:19:38;;;;;;;14.93;10.48;;;19.20;99.90;;;;;;10123269;29;20362;-85
2022/07/08 10:24:41;;;;;;;7.15;6.43;;;18.30;99.90;;;;;;10126584;29;20029;-88
2022/07/08 10:29:41;;;;;;;13.65;11.05;;;17.70;99.90;;;;;;10111299;29;20051;-88
2022/07/08 10:34:42;;;;;;;20.17;14.60;;;17.10;99.90;;;;;;10116855;29;20059;-86
2022/07/08 10:39:43;;;;;;;17.83;11.80;;;17.10;99.90;;;;;;10093478;29;20021;-87
2022/07/08 10:44:43;;;;;;;13.20;9.43;;;17.30;99.90;;;;;;10137863;29;20076;-87
2022/07/08 10:49:48;;;;;;;8.52;6.40;;;17.50;99.90;;;;;;10113906;29;20126;-87
2022/07/08 10:55:14;;;;;;;9.73;6.88;;;17.60;99.90;;;;;;10111691;29;20032;-88
2022/07/08 11:34:48;;;;;;;7.88;5.82;;;20.10;99.90;;;;;;10121509;29;20036;-86
2022/07/08 11:46:00;;;;;;;5.70;5.07;;;20.80;99.90;;;;;;10121730;29;20064;-86
2022/07/08 11:56:37;;;;;;;6.53;5.72;;;19.60;99.90;;;;;;10381898;23;20462;-85
2022/07/08 12:02:00;;;;;;;;;;;19.40;99.90;;;;;;9899655;29;20119;-83
2022/07/08 12:07:03;;;;;;;8.60;7.10;;;19.10;99.90;;;;;;9903794;29;20316;-83
2022/07/08 12:12:06;;;;;;;12.40;8.15;;;18.60;99.90;;;;;;10017412;29;20105;-86
2022/07/08 12:17:07;;;;;;;5.57;5.00;;;18.40;99.90;;;;;;10046996;29;20028;-86
2022/07/08 12:22:08;;;;;;;7.78;5.22;;;18.30;99.90;;;;;;10042869;29;20505;-89
2022/07/08 12:27:15;;;;;;;7.22;5.00;;;18.00;99.90;;;;;;10047710;29;20048;-87
2022/07/08 12:32:22;;;;;;;5.35;4.85;;;18.10;99.90;;;;;;10049235;29;20036;-89
2022/07/08 12:37:23;;;;;;;7.07;5.60;;;18.30;99.90;;;;;;10030096;29;20124;-83
2022/07/08 12:42:26;;;;;;;7.25;6.30;;;18.50;99.90;;;;;;10042388;29;20053;-85
2022/07/08 12:47:26;;;;;;;5.90;5.30;;;18.90;99.90;;;;;;10039405;29;20033;-85
2022/07/08 12:52:27;;;;;;;9.60;6.28;;;19.00;99.90;;;;;;10046254;29;20053;-84
2022/07/08 12:57:28;;;;;;;9.85;6.95;;;19.20;99.90;;;;;;10040812;29;20037;-84
2022/07/08 13:02:28;;;;;;;9.50;5.88;;;19.60;99.90;;;;;;10035980;29;20435;-82
2022/07/08 13:07:29;;;;;;;8.15;5.85;;;20.20;99.90;;;;;;10023897;29;20041;-84
2022/07/08 13:12:29;;;;;;;10.10;6.55;;;20.70;99.90;;;;;;10045576;29;20033;-82
2022/07/08 13:17:30;;;;;;;15.95;8.98;;;20.20;99.90;;;;;;10045266;29;20510;-83
2022/07/08 13:22:31;;;;;;;11.27;7.75;;;19.70;99.90;;;;;;10040872;29;20124;-85
2022/07/08 13:27:31;;;;;;;10.82;7.95;;;19.50;99.90;;;;;;10027397;29;20026;-83
2022/07/08 13:32:32;;;;;;;12.32;6.03;;;19.10;99.90;;;;;;10041419;29;20034;-86
2022/07/08 13:37:33;;;;;;;14.57;6.10;;;18.40;99.90;;;;;;10046060;29;20066;-82
2022/07/08 13:42:34;;;;;;;13.25;6.35;;;17.20;99.90;;;;;;10045901;29;20049;-83
2022/07/08 13:47:35;;;;;;;13.57;7.90;;;16.50;99.90;;;;;;10026290;29;20383;-86
2022/07/08 13:52:36;;;;;;;15.07;8.55;;;16.30;99.90;;;;;;10115082;24;20123;-85
2022/07/08 13:57:36;;;;;;;14.05;6.78;;;16.20;99.90;;;;;;10112884;29;20029;-87
2022/07/08 14:02:37;;;;;;;12.75;8.02;;;16.20;99.90;;;;;;10126497;29;20128;-87
2022/07/08 14:07:37;;;;;;;12.35;6.75;;;16.50;99.90;;;;;;10124491;29;20459;-87
2022/07/08 14:12:38;;;;;;;13.50;7.65;;;17.20;99.90;;;;;;10112728;29;20060;-84
2022/07/08 14:17:39;;;;;;;8.68;5.63;;;17.80;99.90;;;;;;10124400;29;20063;-86
2022/07/08 14:22:39;;;;;;;9.07;6.47;;;18.40;99.90;;;;;;10114395;29;20139;-84
2022/07/08 14:27:40;;;;;;;10.15;5.22;;;18.70;99.90;;;;;;10126151;29;20032;-83
2022/07/08 14:32:41;;;;;;;11.57;6.03;;;19.00;99.90;;;;;;10121769;29;20161;-84
2022/07/08 14:37:41;;;;;;;9.77;5.43;;;19.00;99.90;;;;;;10125743;29;20032;-83
2022/07/08 14:42:42;;;;;;;6.55;4.93;;;18.90;99.90;;;;;;10126258;29;20040;-84
2022/07/08 14:47:42;;;;;;;7.90;5.00;;;19.10;99.90;;;;;;10109836;29;20525;-84
2022/07/08 14:52:43;;;;;;;8.80;5.55;;;19.00;99.90;;;;;;10126496;29;20052;-83
2022/07/08 14:57:44;;;;;;;6.40;4.35;;;18.80;99.90;;;;;;10125666;29;20108;-87
2022/07/08 15:02:44;;;;;;;8.75;4.30;;;18.60;99.90;;;;;;10117022;29;20051;-86
2022/07/08 15:07:45;;;;;;;6.78;4.20;;;18.60;99.90;;;;;;10094731;29;20059;-86
2022/07/08 15:12:45;;;;;;;6.45;3.85;;;18.90;99.90;;;;;;10098859;29;20064;-85
2022/07/08 15:17:46;;;;;;;5.47;3.65;;;18.80;99.90;;;;;;10123438;29;20029;-84
2022/07/08 15:22:47;;;;;;;5.78;3.33;;;18.60;99.90;;;;;;10125917;29;20051;-85
2022/07/08 15:27:47;;;;;;;6.72;3.58;;;18.20;99.90;;;;;;10108301;29;20029;-86
2022/07/08 15:32:48;;;;;;;4.43;3.00;;;18.00;99.90;;;;;;10124808;29;20056;-86
2022/07/08 15:37:49;;;;;;;7.93;3.35;;;17.80;99.90;;;;;;10108807;29;20044;-85
2022/07/08 15:42:49;;;;;;;7.50;3.58;;;17.70;99.90;;;;;;10112590;29;20037;-85
2022/07/08 15:47:50;;;;;;;6.72;2.92;;;17.60;99.90;;;;;;10100233;29;20043;-86
2022/07/08 15:52:51;;;;;;;7.13;3.42;;;17.60;99.90;;;;;;10094756;29;20426;-84
2022/07/08 15:57:53;;;;;;;3.70;2.65;;;17.60;99.90;;;;;;10114168;29;20033;-85
2022/07/08 16:02:53;;;;;;;6.72;2.72;;;17.80;99.90;;;;;;10098430;29;20036;-84
2022/07/08 16:07:54;;;;;;;3.92;2.50;;;18.00;99.90;;;;;;10115023;29;20035;-88
2022/07/08 16:13:08;;;;;;;5.38;2.15;;;18.20;99.90;;;;;;10107819;29;20084;-86
2022/07/08 16:24:44;;;;;;;6.32;2.60;;;18.00;99.90;;;;;;10084943;29;20060;-88
2022/07/08 16:41:29;;;;;;;6.10;2.78;;;18.60;99.90;;;;;;10118839;29;20041;-84
2022/07/08 16:46:31;;;;;;;4.07;2.50;;;18.90;99.90;;;;;;10100700;29;20405;-86
2022/07/08 16:51:31;;;;;;;4.10;2.05;;;19.10;99.90;;;;;;10088058;29;20180;-85
2022/07/08 16:56:32;;;;;;;4.32;2.00;;;19.20;99.90;;;;;;10105775;29;20322;-84
2022/07/08 17:01:32;;;;;;;12.65;1.90;;;19.10;99.90;;;;;;10114808;29;20029;-86
2022/07/08 17:06:33;;;;;;;3.47;1.80;;;19.00;99.90;;;;;;10093532;29;20049;-85
2022/07/08 17:11:34;;;;;;;4.90;2.00;;;18.90;99.90;;;;;;10088817;29;20468;-85
2022/07/08 17:16:34;;;;;;;5.90;2.45;;;18.80;99.90;;;;;;10092256;29;20037;-86
2022/07/08 17:21:35;;;;;;;3.72;1.95;;;18.70;99.90;;;;;;10099701;29;20032;-85
2022/07/08 17:26:36;;;;;;;3.15;1.70;;;18.70;99.90;;;;;;10100471;29;20025;-87
2022/07/08 17:31:36;;;;;;;3.85;2.00;;;18.50;99.90;;;;;;10108626;29;20469;-86
2022/07/08 17:36:38;;;;;;;3.17;1.55;;;18.20;99.90;;;;;;10112184;29;20433;-85
2022/07/08 17:41:39;;;;;;;2.65;1.98;;;17.90;99.90;;;;;;10128575;29;20065;-85
2022/07/08 17:46:40;;;;;;;3.22;1.80;;;17.80;99.90;;;;;;10127596;29;20600;-87
2022/07/08 17:51:41;;;;;;;4.35;2.17;;;17.80;99.90;;;;;;10105035;29;20156;-85
2022/07/08 17:56:43;;;;;;;3.63;2.17;;;17.70;99.90;;;;;;10112000;29;20036;-85
2022/07/08 18:01:44;;;;;;;5.07;2.20;;;17.60;99.90;;;;;;10119002;29;20465;-85
2022/07/08 18:06:46;;;;;;;3.53;2.20;;;17.50;99.90;;;;;;10116562;29;20048;-86
2022/07/08 18:11:47;;;;;;;4.43;2.28;;;17.40;99.90;;;;;;10122878;29;20453;-87
2022/07/08 18:16:47;;;;;;;3.83;2.00;;;17.30;99.90;;;;;;10115001;23;20052;-87
2022/07/08 18:21:50;;;;;;;6.88;2.70;;;17.10;99.90;;;;;;10128308;29;20459;-88
2022/07/08 18:26:50;;;;;;;5.10;2.63;;;17.00;99.90;;;;;;10125737;29;20039;-88
2022/07/08 18:31:54;;;;;;;6.72;2.85;;;16.90;99.90;;;;;;10131724;23;20538;-88
2022/07/08 18:36:55;;;;;;;3.90;2.90;;;16.70;99.90;;;;;;10109698;29;20032;-89
2022/07/08 18:41:55;;;;;;;5.20;2.88;;;16.70;99.90;;;;;;10110167;29;20063;-85
2022/07/08 18:47:09;;;;;;;5.32;2.28;;;16.70;99.90;;;;;;10126780;29;20038;-89
2022/07/08 18:52:09;;;;;;;6.05;2.80;;;16.60;99.90;;;;;;10100727;29;20037;-89
2022/07/08 18:57:15;;;;;;;4.97;2.70;;;16.60;99.90;;;;;;10110813;29;20032;-91
2022/07/08 19:02:22;;;;;;;7.40;3.20;;;16.40;99.90;;;;;;10116879;29;20069;-93
2022/07/08 19:07:25;;;;;;;5.82;3.33;;;16.10;99.90;;;;;;10106203;29;20385;-86
2022/07/08 19:12:26;;;;;;;4.60;3.00;;;15.70;99.90;;;;;;10123144;29;20036;-87
2022/07/08 19:17:28;;;;;;;6.35;3.15;;;15.30;99.90;;;;;;10112315;29;20040;-87
2022/07/08 19:22:29;;;;;;;5.05;3.45;;;14.90;99.90;;;;;;10105510;29;20037;-86
2022/07/08 19:27:29;;;;;;;4.93;3.75;;;14.70;99.90;;;;;;10102370;29;20156;-85
2022/07/08 19:32:30;;;;;;;6.72;4.68;;;14.50;99.90;;;;;;10125847;23;20049;-85
2022/07/08 19:37:31;;;;;;;7.50;5.03;;;14.50;99.90;;;;;;10104141;29;20177;-88
2022/07/08 19:42:31;;;;;;;9.02;4.43;;;14.50;99.90;;;;;;10112775;29;20036;-89
2022/07/08 19:47:32;;;;;;;5.70;4.22;;;14.70;99.90;;;;;;10102253;29;20021;-88
2022/07/08 19:52:34;;;;;;;9.50;4.35;;;14.80;99.90;;;;;;10124794;29;20027;-88
2022/07/08 20:03:45;;;;;;;6.53;3.80;;;15.00;99.90;;;;;;10121048;29;20068;-88
2022/07/08 20:08:58;;;;;;;8.85;4.07;;;15.00;99.90;;;;;;10119422;29;20071;-88
2022/07/08 20:14:37;;;;;;;8.95;4.30;;;15.00;99.90;;;;;;10114097;29;20039;-88
2022/07/08 20:19:37;;;;;;;8.50;3.88;;;15.00;99.90;;;;;;10110676;29;20047;-91
2022/07/08 20:24:44;;;;;;;6.35;4.10;;;15.00;99.90;;;;;;10114362;29;20040;-88
2022/07/08 20:35:12;;;;;;;6.28;4.07;;;15.00;99.90;;;;;;10119079;29;20041;-87
2022/07/08 20:40:13;;;;;;;9.70;4.20;;;15.00;99.90;;;;;;10113379;29;20051;-89
2022/07/08 20:45:16;;;;;;;8.45;4.65;;;15.00;99.90;;;;;;10112623;29;20936;-87
2022/07/08 20:50:17;;;;;;;10.10;4.53;;;15.00;99.90;;;;;;10102862;29;20041;-89
2022/07/08 20:55:18;;;;;;;6.90;4.32;;;15.10;99.90;;;;;;10094516;29;20032;-88
2022/07/08 21:00:19;;;;;;;14.15;4.57;;;15.10;99.90;;;;;;10090719;29;20040;-88
2022/07/08 21:05:19;;;;;;;9.35;4.45;;;15.10;99.90;;;;;;10085565;29;20060;-87
2022/07/08 21:10:22;;;;;;;10.35;5.05;;;15.00;99.90;;;;;;10108993;29;20548;-85
2022/07/08 21:15:24;;;;;;;10.05;4.80;;;15.00;99.90;;;;;;10108265;29;20080;-86
2022/07/08 21:25:30;;;;;;;10.55;5.32;;;15.10;99.90;;;;;;10118164;29;20052;-86
2022/07/08 21:30:30;;;;;;;11.00;5.18;;;15.00;99.90;;;;;;10111908;29;20037;-86
2022/07/08 21:35:31;;;;;;;9.00;5.68;;;15.10;99.90;;;;;;10112480;29;20021;-89
2022/07/08 21:40:32;;;;;;;11.60;5.05;;;15.10;99.90;;;;;;10112295;29;20032;-86
2022/07/08 21:45:32;;;;;;;12.07;5.00;;;15.10;99.90;;;;;;10110249;29;20041;-87
2022/07/08 21:50:33;;;;;;;8.75;4.85;;;15.00;99.90;;;;;;10125015;29;20036;-87
2022/07/08 21:55:34;;;;;;;12.60;4.97;;;15.10;99.90;;;;;;10108463;29;20092;-86
2022/07/08 22:00:35;;;;;;;7.57;5.05;;;15.10;99.90;;;;;;10110469;29;20063;-85
2022/07/08 22:05:38;;;;;;;14.23;5.43;;;15.10;99.90;;;;;;10111444;29;20115;-86
2022/07/08 22:10:38;;;;;;;14.30;6.05;;;15.10;99.90;;;;;;10120954;29;20477;-85
2022/07/08 22:15:39;;;;;;;21.88;6.32;;;15.10;99.90;;;;;;10110889;29;20031;-87
2022/07/08 22:20:40;;;;;;;9.82;5.50;;;15.10;99.90;;;;;;10112308;29;20473;-85
2022/07/08 22:25:40;;;;;;;12.18;5.50;;;15.10;99.90;;;;;;10106665;29;20044;-87
2022/07/08 22:30:41;;;;;;;12.55;5.20;;;15.10;99.90;;;;;;10112199;29;20059;-86
2022/07/08 22:35:42;;;;;;;9.85;4.70;;;15.10;99.90;;;;;;10110413;29;20931;-87
2022/07/08 22:40:42;;;;;;;7.85;5.28;;;15.00;99.90;;;;;;10111666;29;20032;-86
2022/07/08 22:45:43;;;;;;;9.65;5.10;;;15.00;99.90;;;;;;10104802;29;20488;-86
2022/07/08 22:50:43;;;;;;;11.68;5.50;;;15.00;99.90;;;;;;10127306;29;20444;-85
2022/07/08 22:55:44;;;;;;;16.02;5.97;;;14.90;99.90;;;;;;10111409;29;20830;-86
2022/07/08 23:00:44;;;;;;;11.27;5.65;;;14.90;99.90;;;;;;10127674;29;20080;-86
2022/07/08 23:05:45;;;;;;;16.90;6.40;;;14.90;99.90;;;;;;10126734;29;20143;-87
2022/07/08 23:10:46;;;;;;;13.00;5.85;;;14.90;99.90;;;;;;10109471;29;20039;-86
2022/07/08 23:15:46;;;;;;;8.93;5.30;;;14.90;99.90;;;;;;10124352;29;20036;-86
2022/07/08 23:20:47;;;;;;;13.98;5.55;;;15.00;99.90;;;;;;10109905;29;20037;-88
2022/07/08 23:25:47;;;;;;;9.20;5.18;;;15.00;99.90;;;;;;10126634;29;20045;-87
2022/07/08 23:30:48;;;;;;;11.10;5.88;;;15.00;99.90;;;;;;10127848;29;20033;-89
2022/07/08 23:35:48;;;;;;;9.88;5.20;;;15.00;99.90;;;;;;10110174;29;20071;-88
2022/07/08 23:40:54;;;;;;;10.77;5.50;;;14.90;99.90;;;;;;10109348;29;20036;-86
2022/07/08 23:45:54;;;;;;;12.25;5.85;;;14.90;99.90;;;;;;10106289;29;20041;-90
2022/07/08 23:50:55;;;;;;;10.23;6.20;;;14.90;99.90;;;;;;10109435;29;20129;-87
2022/07/08 23:55:55;;;;;;;13.45;7.30;;;14.90;99.90;;;;;;10126870;29;20488;-88
